Time;durP1;ratioP1;P1;durP2;ratioP2;P2;SDS_P1;SDS_P2;PMS_P1;PMS_P2;Temp;Humidity;BMP_temperature;BMP_pressure;BME280_temperature;BME280_humidity;BME280_pressure;Samples;Min_cycle;Max_cycle;Signal;HPM_P1;HPM_P2
2022/06/16 00:01:41;;;;;;;0.80;0.63;;;22.10;79.00;;;;;;5011139;28;20026;-67
2022/06/16 00:04:07;;;;;;;1.27;0.80;;;22.10;78.90;;;;;;5010995;28;20419;-67
2022/06/16 00:06:33;;;;;;;0.10;0.10;;;21.70;81.50;;;;;;5011224;28;20042;-67
2022/06/16 00:08:59;;;;;;;0.00;0.00;;;21.30;84.00;;;;;;5009117;28;20048;-67
2022/06/16 00:11:25;;;;;;;0.10;0.10;;;21.10;86.10;;;;;;5011521;28;20417;-67
2022/06/16 00:13:51;;;;;;;0.68;0.68;;;21.00;86.60;;;;;;5009730;28;20030;-67
2022/06/16 00:16:20;;;;;;;0.75;0.45;;;21.10;86.00;;;;;;5010905;28;20037;-67
2022/06/16 00:18:46;;;;;;;0.20;0.20;;;21.30;84.00;;;;;;5009113;28;20084;-68
2022/06/16 00:21:12;;;;;;;0.10;0.10;;;21.50;82.80;;;;;;5011117;28;20029;-68
2022/06/16 00:23:38;;;;;;;0.25;0.25;;;21.80;82.10;;;;;;5009446;28;20088;-67
2022/06/16 00:26:13;;;;;;;0.57;0.57;;;21.90;81.00;;;;;;5011022;28;20073;-68
2022/06/16 00:28:43;;;;;;;0.13;0.13;;;22.20;79.80;;;;;;5009275;28;20034;-68
2022/06/16 00:31:11;;;;;;;0.55;0.55;;;22.50;78.50;;;;;;5010571;28;20040;-67
2022/06/16 00:33:37;;;;;;;0.10;0.10;;;22.70;77.80;;;;;;5011093;28;20030;-68
2022/06/16 00:36:03;;;;;;;0.00;0.00;;;22.60;77.40;;;;;;5009647;28;20076;-68
2022/06/16 00:38:29;;;;;;;0.00;0.00;;;22.50;77.60;;;;;;5010346;28;20026;-68
2022/06/16 00:40:55;;;;;;;0.13;0.13;;;22.20;78.80;;;;;;5009126;28;20017;-68
2022/06/16 00:43:21;;;;;;;0.52;0.38;;;21.20;83.80;;;;;;5010633;28;20062;-68
2022/06/16 00:45:54;;;;;;;1.08;0.43;;;20.50;88.30;;;;;;5009465;28;20065;-68
2022/06/16 00:48:48;;;;;;;8.63;3.08;;;20.30;90.50;;;;;;5010549;28;20030;-67
2022/06/16 00:51:25;;;;;;;4.30;3.63;;;20.10;92.00;;;;;;5009321;28;20157;-68
2022/06/16 00:53:56;;;;;;;7.25;3.20;;;20.20;91.80;;;;;;5010360;28;20026;-68
2022/06/16 00:56:22;;;;;;;1.73;1.33;;;20.10;91.70;;;;;;5009801;28;20038;-67
2022/06/16 00:58:54;;;;;;;24.00;0.82;;;19.80;92.40;;;;;;5010877;28;20509;-67
2022/06/16 01:01:22;;;;;;;3.13;0.80;;;19.70;92.90;;;;;;5013378;28;20026;-68
2022/06/16 01:06:34;;;;;;;20.50;1.95;;;19.80;93.80;;;;;;5002283;28;20023;-67
2022/06/16 01:09:15;;;;;;;0.68;0.68;;;19.80;94.00;;;;;;4976327;28;20049;-67
2022/06/16 01:15:10;;;;;;;1.63;1.17;;;19.80;94.30;;;;;;4994698;28;20267;-67
2022/06/16 01:18:16;;;;;;;1.63;1.52;;;19.90;94.30;;;;;;4994708;28;20038;-67
2022/06/16 01:21:16;;;;;;;3.08;2.33;;;20.00;94.20;;;;;;4994155;28;20053;-67
2022/06/16 01:23:55;;;;;;;0.08;0.08;;;20.00;94.30;;;;;;4994478;28;20030;-68
2022/06/16 01:26:52;;;;;;;3.00;1.15;;;19.90;94.50;;;;;;4993417;28;20042;-68
2022/06/16 01:29:40;;;;;;;0.22;0.22;;;19.80;94.50;;;;;;4992560;28;20068;-68
2022/06/16 01:32:39;;;;;;;2.08;1.08;;;19.90;94.80;;;;;;4994506;28;20553;-68
2022/06/16 01:35:28;;;;;;;2.83;1.70;;;20.00;95.10;;;;;;4993351;28;20073;-68
2022/06/16 01:38:37;;;;;;;1.15;1.05;;;20.00;95.00;;;;;;4994529;28;20038;-68
2022/06/16 01:41:21;;;;;;;5.03;1.92;;;20.30;94.80;;;;;;4993360;28;20064;-66
2022/06/16 01:44:12;;;;;;;1.20;1.08;;;20.20;94.40;;;;;;4993272;28;20026;-68
2022/06/16 01:46:42;;;;;;;0.63;0.63;;;19.90;96.00;;;;;;4993164;28;20022;-67
2022/06/16 01:49:23;;;;;;;2.05;1.83;;;19.60;96.50;;;;;;4992591;28;20037;-68
2022/06/16 01:52:04;;;;;;;0.68;0.65;;;19.50;97.30;;;;;;4992925;28;20027;-67
2022/06/16 01:54:36;;;;;;;2.42;1.45;;;19.10;98.00;;;;;;4992517;28;20121;-67
2022/06/16 01:57:10;;;;;;;1.58;1.17;;;19.00;99.40;;;;;;4993017;28;20038;-67
2022/06/16 02:00:09;;;;;;;6.63;0.95;;;19.00;99.80;;;;;;4993506;28;20035;-67
2022/06/16 02:02:38;;;;;;;8.15;0.85;;;18.90;99.90;;;;;;4950187;28;20081;-67
2022/06/16 02:05:40;;;;;;;3.25;0.98;;;19.10;98.30;;;;;;4992825;28;20061;-68
2022/06/16 02:08:22;;;;;;;0.28;0.25;;;19.20;98.90;;;;;;4992809;28;20070;-68
2022/06/16 02:10:59;;;;;;;0.80;0.80;;;19.10;99.20;;;;;;4975775;28;20030;-68
2022/06/16 02:13:33;;;;;;;5.72;2.00;;;19.30;98.80;;;;;;4992487;28;20043;-68
2022/06/16 02:16:29;;;;;;;1.83;1.52;;;19.40;98.20;;;;;;5005917;28;20076;-68
2022/06/16 02:18:57;;;;;;;0.20;0.20;;;19.50;98.00;;;;;;4992135;28;20121;-68
2022/06/16 02:21:35;;;;;;;19.73;1.85;;;19.80;97.20;;;;;;4991992;28;20022;-68
2022/06/16 02:24:04;;;;;;;0.22;0.22;;;20.10;96.20;;;;;;4992171;28;20439;-68
2022/06/16 02:26:31;;;;;;;1.08;0.75;;;20.40;95.30;;;;;;4993616;28;20033;-68
2022/06/16 02:29:01;;;;;;;0.17;0.17;;;20.40;95.20;;;;;;4991973;28;20038;-67
2022/06/16 02:35:13;;;;;;;0.10;0.10;;;20.20;96.20;;;;;;4982658;28;20488;-65
2022/06/16 02:38:03;;;;;;;0.00;0.00;;;20.20;96.70;;;;;;4974027;28;20078;-66
2022/06/16 02:40:47;;;;;;;3.10;1.77;;;20.10;97.40;;;;;;4987904;28;20034;-66
2022/06/16 02:43:52;;;;;;;0.30;0.30;;;20.10;97.60;;;;;;4973675;28;20117;-66
2022/06/16 02:46:36;;;;;;;5.28;1.73;;;19.90;98.30;;;;;;4966837;28;20454;-66
2022/06/16 02:49:36;;;;;;;0.17;0.17;;;19.80;99.00;;;;;;4987698;28;20038;-66
2022/06/16 02:52:19;;;;;;;0.10;0.05;;;19.80;99.50;;;;;;4973835;28;20030;-66
2022/06/16 02:55:34;;;;;;;1.20;0.70;;;20.00;98.90;;;;;;4988461;28;20105;-66
2022/06/16 02:58:02;;;;;;;1.15;0.98;;;20.20;98.30;;;;;;4973581;28;20031;-66
2022/06/16 03:00:41;;;;;;;0.10;0.10;;;20.10;98.60;;;;;;4988174;28;20027;-66
2022/06/16 03:03:18;;;;;;;0.10;0.10;;;20.30;98.30;;;;;;4983513;28;20035;-65
2022/06/16 03:05:44;;;;;;;0.00;0.00;;;20.00;98.70;;;;;;4969743;28;20042;-65
2022/06/16 03:08:09;;;;;;;0.30;0.30;;;19.90;99.50;;;;;;4984829;28;20027;-66
2022/06/16 03:10:50;;;;;;;0.68;0.65;;;19.80;99.80;;;;;;4989108;28;20394;-66
2022/06/16 03:13:27;;;;;;;0.22;0.22;;;19.80;99.90;;;;;;4973215;28;20097;-66
2022/06/16 03:15:55;;;;;;;0.30;0.30;;;19.90;99.50;;;;;;4972178;28;20030;-65
2022/06/16 03:18:22;;;;;;;0.25;0.25;;;20.10;98.90;;;;;;4973104;28;20037;-65
2022/06/16 03:20:48;;;;;;;0.10;0.10;;;20.20;98.30;;;;;;4972783;28;20034;-66
2022/06/16 03:23:15;;;;;;;1.35;0.75;;;20.20;98.20;;;;;;4971064;28;20460;-65
2022/06/16 03:25:42;;;;;;;0.15;0.10;;;20.30;97.60;;;;;;4973003;28;20038;-66
2022/06/16 03:28:09;;;;;;;0.50;0.47;;;20.40;97.30;;;;;;4971240;28;20034;-66
2022/06/16 03:30:38;;;;;;;0.45;0.45;;;19.90;98.10;;;;;;4970802;28;20043;-66
2022/06/16 03:33:06;;;;;;;0.40;0.35;;;19.90;98.60;;;;;;4971155;28;20034;-66
2022/06/16 03:35:32;;;;;;;1.20;0.57;;;19.80;98.70;;;;;;4971403;28;20078;-66
2022/06/16 03:38:11;;;;;;;1.75;0.63;;;19.70;98.70;;;;;;4972512;28;20057;-66
2022/06/16 03:40:37;;;;;;;1.35;1.00;;;19.50;99.50;;;;;;4970934;28;20030;-65
2022/06/16 03:43:05;;;;;;;0.63;0.45;;;19.80;98.70;;;;;;4972326;28;20031;-65
2022/06/16 03:45:30;;;;;;;1.00;0.32;;;19.60;98.50;;;;;;4972572;28;20471;-65
2022/06/16 03:47:56;;;;;;;0.43;0.43;;;19.10;99.00;;;;;;4972552;28;20034;-65
2022/06/16 03:50:22;;;;;;;2.13;1.92;;;19.40;99.20;;;;;;4971446;28;20186;-65
2022/06/16 03:52:48;;;;;;;0.65;0.43;;;19.40;99.00;;;;;;4972258;28;20058;-65
2022/06/16 03:55:14;;;;;;;0.50;0.50;;;19.40;98.80;;;;;;4972143;28;20554;-66
2022/06/16 03:57:39;;;;;;;0.05;0.05;;;19.30;99.40;;;;;;4972136;28;20022;-66
2022/06/16 04:00:08;;;;;;;0.30;0.22;;;19.10;99.80;;;;;;4986601;28;20034;-63
2022/06/16 04:02:34;;;;;;;0.98;0.65;;;19.00;99.90;;;;;;4971235;28;20027;-63
2022/06/16 04:05:00;;;;;;;0.00;0.00;;;19.00;99.90;;;;;;4973048;28;20093;-62
2022/06/16 04:07:28;;;;;;;0.00;0.00;;;19.00;99.90;;;;;;4972633;28;20030;-63
2022/06/16 04:09:54;;;;;;;0.52;0.50;;;19.00;99.90;;;;;;4971231;28;20039;-63
2022/06/16 04:12:20;;;;;;;0.00;0.00;;;19.00;99.90;;;;;;4970422;28;20210;-63
2022/06/16 04:14:46;;;;;;;0.03;0.03;;;19.00;99.90;;;;;;4986669;28;20030;-63
2022/06/16 04:17:11;;;;;;;0.25;0.25;;;18.80;99.90;;;;;;4971765;28;20027;-63
2022/06/16 04:20:11;;;;;;;0.47;0.47;;;18.80;99.90;;;;;;4971414;28;20038;-63
2022/06/16 04:22:23;;;;;;;0.70;0.47;;;18.90;99.90;;;;;;4971562;28;20035;-63
2022/06/16 04:24:48;;;;;;;1.00;0.70;;;19.00;99.90;;;;;;4970509;28;20046;-63
2022/06/16 04:27:14;;;;;;;0.50;0.38;;;19.10;99.90;;;;;;4971938;28;20035;-63
2022/06/16 04:29:40;;;;;;;1.83;1.10;;;19.00;99.90;;;;;;4971352;28;20494;-63
2022/06/16 04:32:06;;;;;;;0.20;0.20;;;19.20;99.90;;;;;;4971759;28;20027;-63
2022/06/16 04:34:32;;;;;;;0.10;0.10;;;19.30;99.90;;;;;;4970470;28;20043;-63
2022/06/16 04:36:58;;;;;;;0.47;0.40;;;19.40;99.90;;;;;;4971647;28;20162;-63
2022/06/16 04:39:24;;;;;;;0.93;0.90;;;19.40;99.90;;;;;;4969544;28;20602;-63
2022/06/16 04:41:49;;;;;;;0.00;0.00;;;19.50;99.90;;;;;;4971668;28;20034;-63
2022/06/16 04:44:15;;;;;;;0.00;0.00;;;19.50;99.90;;;;;;4971465;28;20475;-63
2022/06/16 04:46:41;;;;;;;0.10;0.10;;;19.50;99.90;;;;;;4971480;28;20069;-64
2022/06/16 04:49:06;;;;;;;0.10;0.10;;;20.00;99.20;;;;;;4971109;28;20031;-63
2022/06/16 04:51:32;;;;;;;7.22;1.40;;;20.30;98.20;;;;;;4971587;28;20197;-62
2022/06/16 04:53:58;;;;;;;0.10;0.10;;;20.50;97.50;;;;;;4970144;28;20035;-63
2022/06/16 04:56:24;;;;;;;0.00;0.00;;;20.80;96.80;;;;;;4970186;28;20138;-62
2022/06/16 04:58:49;;;;;;;1.35;0.70;;;21.00;96.30;;;;;;4970830;28;20383;-62
2022/06/16 05:01:15;;;;;;;0.00;0.00;;;20.80;96.30;;;;;;4970344;28;20026;-65
2022/06/16 05:03:41;;;;;;;0.10;0.10;;;20.60;96.90;;;;;;4971185;28;20654;-64
2022/06/16 05:06:06;;;;;;;0.20;0.20;;;20.50;97.10;;;;;;4971538;28;20035;-64
2022/06/16 05:08:32;;;;;;;0.32;0.20;;;20.60;97.20;;;;;;4970865;28;20505;-65
2022/06/16 05:10:58;;;;;;;0.47;0.47;;;20.70;96.80;;;;;;4972244;28;20049;-63
2022/06/16 05:13:24;;;;;;;0.10;0.10;;;20.80;96.50;;;;;;4971332;28;20372;-64
2022/06/16 05:15:54;;;;;;;0.45;0.45;;;20.90;96.30;;;;;;4971001;28;20034;-66
2022/06/16 05:18:20;;;;;;;0.03;0.03;;;21.30;95.70;;;;;;4971646;28;20061;-69
2022/06/16 05:20:45;;;;;;;0.10;0.10;;;21.60;94.80;;;;;;4969212;28;20436;-69
2022/06/16 05:23:12;;;;;;;0.00;0.00;;;21.70;94.50;;;;;;4971233;28;20035;-69
2022/06/16 05:25:40;;;;;;;0.10;0.10;;;21.70;94.40;;;;;;4970043;28;20039;-70
2022/06/16 05:28:07;;;;;;;0.25;0.20;;;21.80;94.30;;;;;;4971224;28;20030;-70
2022/06/16 05:30:33;;;;;;;0.32;0.17;;;21.80;93.90;;;;;;4969247;28;20035;-69
2022/06/16 05:32:59;;;;;;;0.30;0.30;;;21.90;93.70;;;;;;4970943;28;20089;-75
2022/06/16 05:35:25;;;;;;;13.98;0.77;;;21.90;93.60;;;;;;4971285;28;20027;-75
2022/06/16 05:37:51;;;;;;;0.00;0.00;;;21.90;93.60;;;;;;4971142;28;20031;-75
2022/06/16 05:40:17;;;;;;;0.28;0.28;;;21.70;93.70;;;;;;4970433;28;20070;-75
2022/06/16 05:42:43;;;;;;;0.10;0.10;;;21.70;93.90;;;;;;4970901;28;20110;-75
2022/06/16 05:45:11;;;;;;;0.15;0.15;;;21.70;93.80;;;;;;4971082;28;20121;-75
2022/06/16 05:47:38;;;;;;;0.20;0.17;;;21.60;93.80;;;;;;4973398;28;20035;-74
2022/06/16 05:50:06;;;;;;;0.80;0.73;;;21.60;93.80;;;;;;4972602;28;20031;-74
2022/06/16 05:52:32;;;;;;;0.10;0.10;;;21.70;93.70;;;;;;4973080;28;20039;-74
2022/06/16 05:54:58;;;;;;;0.38;0.17;;;21.70;93.80;;;;;;4974449;28;20046;-74
2022/06/16 05:57:24;;;;;;;0.08;0.08;;;21.80;94.00;;;;;;4973207;28;20399;-74
2022/06/16 05:59:49;;;;;;;1.17;0.63;;;21.80;93.30;;;;;;4972903;28;20053;-74
2022/06/16 06:02:19;;;;;;;0.20;0.20;;;21.80;93.20;;;;;;4968965;28;20023;-74
2022/06/16 06:04:47;;;;;;;1.75;0.95;;;21.90;93.00;;;;;;4972931;28;20038;-74
2022/06/16 06:07:13;;;;;;;0.03;0.03;;;22.00;92.80;;;;;;4973028;28;20070;-75
2022/06/16 06:18:20;;;;;;;2.08;1.15;;;22.70;91.50;;;;;;4974836;28;20038;-69
2022/06/16 06:20:46;;;;;;;0.00;0.00;;;23.00;91.00;;;;;;4970788;28;20093;-70
2022/06/16 06:23:12;;;;;;;2.80;1.27;;;22.90;90.90;;;;;;4971477;28;20030;-69
2022/06/16 06:25:38;;;;;;;0.10;0.10;;;23.10;90.60;;;;;;4955181;28;20086;-69
2022/06/16 06:28:05;;;;;;;0.52;0.38;;;23.30;90.30;;;;;;4955211;28;20121;-69
2022/06/16 06:30:34;;;;;;;0.05;0.03;;;23.30;90.30;;;;;;4970524;28;20035;-68
2022/06/16 06:33:02;;;;;;;0.10;0.10;;;23.30;90.20;;;;;;4972138;28;20126;-73
2022/06/16 06:35:28;;;;;;;0.50;0.28;;;23.30;90.20;;;;;;4973766;28;20059;-70
2022/06/16 06:37:54;;;;;;;0.20;0.20;;;23.50;90.00;;;;;;4973752;28;20113;-69
2022/06/16 06:40:30;;;;;;;0.17;0.17;;;23.60;89.50;;;;;;4969038;28;20440;-71
2022/06/16 06:42:56;;;;;;;0.75;0.65;;;23.70;89.60;;;;;;4987953;28;20097;-70
2022/06/16 06:45:22;;;;;;;0.00;0.00;;;23.70;89.40;;;;;;4973289;28;20571;-69
2022/06/16 06:47:49;;;;;;;0.22;0.22;;;23.70;89.50;;;;;;4972646;28;20035;-70
2022/06/16 06:50:28;;;;;;;0.95;0.32;;;23.70;89.30;;;;;;4971723;28;20487;-70
2022/06/16 06:52:54;;;;;;;0.03;0.03;;;23.70;88.40;;;;;;4987928;28;20372;-72
2022/06/16 06:55:21;;;;;;;0.10;0.10;;;23.80;88.60;;;;;;4988005;28;20030;-70
2022/06/16 06:57:49;;;;;;;36.25;1.48;;;23.80;88.30;;;;;;4987220;28;20031;-71
2022/06/16 07:00:17;;;;;;;0.22;0.10;;;23.80;88.60;;;;;;4987631;28;20074;-71
2022/06/16 07:02:43;;;;;;;0.10;0.10;;;23.90;88.00;;;;;;4973025;28;20038;-68
2022/06/16 07:05:10;;;;;;;0.20;0.20;;;24.00;87.40;;;;;;4972806;28;20035;-69
2022/06/16 07:07:37;;;;;;;0.20;0.20;;;24.00;87.40;;;;;;4973345;28;20038;-70
2022/06/16 07:10:06;;;;;;;0.10;0.10;;;24.00;87.20;;;;;;4982715;28;20101;-69
2022/06/16 07:12:34;;;;;;;3.35;0.75;;;24.10;86.80;;;;;;5007190;28;20050;-68
2022/06/16 07:15:00;;;;;;;0.15;0.15;;;24.10;86.80;;;;;;5006379;28;20080;-69
2022/06/16 07:17:26;;;;;;;0.00;0.00;;;24.00;87.10;;;;;;4973019;28;20023;-69
2022/06/16 07:19:53;;;;;;;0.15;0.13;;;23.70;87.50;;;;;;4972003;28;20023;-70
2022/06/16 07:22:19;;;;;;;0.17;0.17;;;23.60;88.20;;;;;;4973376;28;20038;-70
2022/06/16 07:24:46;;;;;;;1.48;0.55;;;23.70;87.90;;;;;;4971332;28;20039;-70
2022/06/16 07:27:12;;;;;;;0.00;0.00;;;23.80;87.60;;;;;;4971290;28;20530;-70
2022/06/16 07:29:38;;;;;;;0.40;0.30;;;23.90;87.20;;;;;;4985490;28;20106;-70
2022/06/16 07:32:05;;;;;;;0.17;0.17;;;24.00;86.90;;;;;;4971113;28;20181;-71
2022/06/16 07:34:31;;;;;;;1.10;0.85;;;24.00;87.60;;;;;;4969672;28;20034;-70
2022/06/16 07:36:57;;;;;;;0.10;0.10;;;24.00;86.80;;;;;;4971188;28;20085;-70
2022/06/16 07:39:22;;;;;;;0.45;0.28;;;24.10;86.70;;;;;;4976204;28;20395;-71
2022/06/16 07:41:48;;;;;;;0.00;0.00;;;24.00;87.30;;;;;;4991764;28;20439;-71
2022/06/16 07:44:16;;;;;;;3.42;0.75;;;24.00;86.70;;;;;;4991721;28;20038;-70
2022/06/16 07:46:47;;;;;;;0.10;0.10;;;24.00;86.90;;;;;;4990643;28;20038;-70
2022/06/16 07:49:21;;;;;;;0.50;0.43;;;24.10;86.20;;;;;;4991457;28;20030;-70
2022/06/16 07:51:46;;;;;;;0.13;0.13;;;24.20;85.50;;;;;;5006620;28;20034;-70
2022/06/16 07:54:12;;;;;;;0.30;0.28;;;24.30;85.20;;;;;;4990441;28;20434;-70
2022/06/16 07:56:38;;;;;;;0.00;0.00;;;24.30;84.80;;;;;;5006865;28;20034;-70
2022/06/16 07:59:04;;;;;;;0.32;0.25;;;24.30;84.80;;;;;;4990987;28;20109;-70
2022/06/16 08:01:30;;;;;;;0.90;0.65;;;24.30;85.10;;;;;;4991424;28;20035;-70
2022/06/16 08:03:56;;;;;;;0.30;0.10;;;24.50;84.70;;;;;;5006438;28;20089;-71
2022/06/16 08:06:26;;;;;;;0.10;0.10;;;24.50;84.30;;;;;;4991498;28;20471;-70
2022/06/16 08:08:53;;;;;;;0.35;0.35;;;24.40;84.60;;;;;;4989639;28;20553;-74
2022/06/16 08:14:04;;;;;;;0.00;0.00;;;24.50;84.70;;;;;;4984419;28;20590;-73
2022/06/16 08:16:33;;;;;;;0.10;0.10;;;24.60;84.40;;;;;;4972142;28;20471;-72
2022/06/16 08:19:03;;;;;;;0.95;0.55;;;24.50;84.30;;;;;;4971703;28;20533;-72
2022/06/16 08:21:29;;;;;;;0.45;0.45;;;24.50;84.40;;;;;;4972405;28;20542;-72
2022/06/16 08:23:55;;;;;;;0.00;0.00;;;24.60;84.60;;;;;;4971876;28;20121;-69
2022/06/16 08:26:22;;;;;;;1.15;0.38;;;24.60;84.50;;;;;;4971734;28;20502;-71
2022/06/16 08:28:53;;;;;;;3.55;0.28;;;24.70;84.00;;;;;;4970031;28;20502;-69
2022/06/16 08:31:21;;;;;;;0.00;0.00;;;24.80;83.80;;;;;;4970422;28;20419;-69
2022/06/16 08:33:51;;;;;;;0.20;0.13;;;24.90;83.60;;;;;;4998485;23;20054;-81
2022/06/16 08:36:19;;;;;;;0.13;0.13;;;25.00;82.40;;;;;;5009714;28;20113;-76
2022/06/16 08:38:45;;;;;;;0.20;0.20;;;25.00;82.50;;;;;;5009608;28;20109;-76
2022/06/16 08:41:22;;;;;;;0.20;0.13;;;25.10;81.60;;;;;;5009289;28;20040;-77
2022/06/16 08:44:17;;;;;;;0.00;0.00;;;25.10;80.90;;;;;;5025854;28;20030;-76
2022/06/16 08:47:22;;;;;;;0.38;0.30;;;25.30;80.50;;;;;;5010803;28;20390;-76
2022/06/16 08:50:28;;;;;;;1.80;0.47;;;25.30;79.90;;;;;;5008608;28;20100;-77
2022/06/16 08:53:16;;;;;;;0.20;0.20;;;25.30;80.10;;;;;;5002863;28;20038;-76
2022/06/16 08:56:18;;;;;;;2.75;0.52;;;25.50;80.10;;;;;;4989460;28;20034;-77
2022/06/16 08:58:58;;;;;;;0.40;0.30;;;25.60;79.40;;;;;;4990137;28;20673;-76
2022/06/16 09:01:38;;;;;;;0.20;0.20;;;25.60;79.80;;;;;;4990254;28;20031;-76
2022/06/16 09:04:22;;;;;;;0.90;0.30;;;25.60;79.90;;;;;;4990692;28;20057;-77
2022/06/16 09:07:05;;;;;;;0.00;0.00;;;25.70;79.10;;;;;;4989751;28;20126;-78
2022/06/16 09:10:18;;;;;;;0.30;0.20;;;25.90;77.40;;;;;;4996396;28;20038;-77
2022/06/16 09:13:08;;;;;;;0.10;0.10;;;25.90;77.00;;;;;;5009155;28;20042;-76
2022/06/16 09:15:47;;;;;;;0.10;0.10;;;26.00;77.30;;;;;;5010513;28;20044;-70
2022/06/16 09:18:29;;;;;;;2.30;0.75;;;26.00;77.60;;;;;;5009254;28;20041;-70
2022/06/16 09:21:40;;;;;;;1.13;0.38;;;26.10;77.60;;;;;;5012216;28;20030;-63
2022/06/16 09:24:31;;;;;;;0.10;0.00;;;26.30;76.50;;;;;;5012742;28;20030;-63
2022/06/16 09:27:18;;;;;;;1.55;0.73;;;26.30;76.10;;;;;;5014012;28;20041;-72
2022/06/16 09:29:50;;;;;;;0.10;0.10;;;26.50;75.90;;;;;;5012300;28;20130;-71
2022/06/16 09:32:51;;;;;;;0.10;0.10;;;26.60;75.70;;;;;;4996982;28;20057;-71
2022/06/16 09:35:47;;;;;;;0.20;0.20;;;26.60;75.70;;;;;;5013549;28;20049;-71
2022/06/16 09:38:29;;;;;;;0.43;0.25;;;26.70;74.60;;;;;;5012758;28;20117;-72
2022/06/16 09:44:28;;;;;;;0.80;0.32;;;26.90;74.50;;;;;;5012552;28;20049;-71
2022/06/16 09:47:04;;;;;;;0.38;0.28;;;27.00;72.60;;;;;;5012183;28;20528;-72
2022/06/16 09:49:53;;;;;;;0.30;0.20;;;27.10;71.80;;;;;;5011786;28;20049;-71
2022/06/16 09:52:41;;;;;;;0.43;0.43;;;27.10;72.10;;;;;;5013515;28;20088;-73
2022/06/16 09:55:29;;;;;;;0.52;0.52;;;27.10;71.60;;;;;;5013517;28;20037;-74
2022/06/16 09:58:21;;;;;;;0.50;0.45;;;27.20;71.00;;;;;;5012330;28;20037;-77
2022/06/16 10:00:47;;;;;;;0.20;0.20;;;27.30;70.70;;;;;;5011487;28;20018;-72
2022/06/16 10:04:00;;;;;;;0.25;0.22;;;27.40;70.80;;;;;;4995667;28;20026;-71
2022/06/16 10:06:56;;;;;;;1.17;0.45;;;27.60;69.80;;;;;;5008441;28;20041;-71
2022/06/16 10:09:54;;;;;;;0.00;0.00;;;27.70;69.60;;;;;;5012873;28;20018;-71
2022/06/16 10:12:48;;;;;;;0.05;0.05;;;27.80;69.30;;;;;;5013323;28;20133;-72
2022/06/16 10:15:30;;;;;;;0.30;0.20;;;27.90;69.60;;;;;;5010839;28;20042;-72
2022/06/16 10:17:58;;;;;;;0.22;0.22;;;28.00;69.50;;;;;;4992569;28;20398;-72
2022/06/16 10:20:25;;;;;;;0.20;0.20;;;28.20;69.10;;;;;;4991678;28;20032;-72
2022/06/16 10:23:11;;;;;;;0.20;0.20;;;28.10;69.00;;;;;;4992143;28;20030;-69
2022/06/16 10:25:46;;;;;;;0.20;0.20;;;28.10;69.30;;;;;;4992149;28;20129;-70
2022/06/16 10:28:32;;;;;;;0.55;0.30;;;28.30;69.00;;;;;;4991934;28;20073;-70
2022/06/16 10:31:00;;;;;;;0.35;0.30;;;28.40;68.20;;;;;;4991760;28;20030;-70
2022/06/16 10:33:52;;;;;;;0.98;0.40;;;28.50;68.60;;;;;;4991791;28;20053;-70
2022/06/16 10:36:23;;;;;;;0.90;0.50;;;28.50;69.00;;;;;;4992316;28;20121;-70
2022/06/16 10:39:14;;;;;;;7.57;0.52;;;28.50;69.20;;;;;;4991862;28;20114;-69
2022/06/16 10:41:50;;;;;;;;;;;28.60;68.90;;;;;;5012792;28;20111;-69
2022/06/16 10:44:18;;;;;;;0.73;0.40;;;28.60;68.80;;;;;;4992433;28;20309;-70
2022/06/16 10:46:52;;;;;;;0.10;0.10;;;28.90;68.60;;;;;;4991641;28;20030;-70
2022/06/16 10:49:35;;;;;;;0.60;0.43;;;28.90;68.20;;;;;;5011135;28;20125;-69
2022/06/16 10:52:14;;;;;;;0.30;0.30;;;28.90;67.90;;;;;;5011271;28;20026;-69
2022/06/16 10:55:20;;;;;;;0.08;0.08;;;29.00;68.30;;;;;;5010647;28;20045;-69
2022/06/16 10:58:27;;;;;;;0.52;0.52;;;29.00;67.60;;;;;;5012491;28;20108;-71
2022/06/16 11:01:23;;;;;;;1.20;0.88;;;29.00;65.90;;;;;;5011776;28;20033;-71
2022/06/16 11:03:53;;;;;;;0.10;0.10;;;29.00;65.30;;;;;;5012310;28;20715;-69
2022/06/16 11:06:23;;;;;;;0.00;0.00;;;29.10;65.00;;;;;;5012240;28;20033;-70
2022/06/16 11:08:58;;;;;;;0.10;0.10;;;29.30;64.60;;;;;;5009927;28;20534;-69
2022/06/16 11:11:52;;;;;;;0.45;0.35;;;29.40;63.30;;;;;;5010522;28;20083;-64
2022/06/16 11:14:34;;;;;;;0.38;0.20;;;29.30;64.40;;;;;;5010715;28;20037;-71
2022/06/16 11:17:07;;;;;;;0.10;0.10;;;29.40;62.70;;;;;;5011886;28;20030;-72
2022/06/16 11:20:00;;;;;;;0.20;0.17;;;29.60;62.90;;;;;;5009796;28;20040;-72
2022/06/16 11:22:40;;;;;;;0.75;0.55;;;29.80;62.20;;;;;;5012274;28;20037;-72
2022/06/16 11:25:30;;;;;;;2.00;1.13;;;29.90;62.00;;;;;;5011972;28;20493;-72
2022/06/16 11:28:06;;;;;;;0.10;0.08;;;29.90;61.90;;;;;;5011890;28;20398;-71
2022/06/16 11:30:47;;;;;;;0.68;0.45;;;29.80;61.20;;;;;;5011082;28;20037;-71
2022/06/16 11:36:58;;;;;;;0.22;0.20;;;30.10;61.40;;;;;;5011302;28;20512;-71
2022/06/16 11:40:02;;;;;;;0.10;0.00;;;30.30;61.30;;;;;;5010114;28;20034;-72
2022/06/16 11:43:04;;;;;;;0.52;0.50;;;30.60;60.90;;;;;;5011202;28;20037;-72
2022/06/16 11:45:55;;;;;;;1.63;1.08;;;30.80;60.60;;;;;;5007677;28;20052;-72
2022/06/16 11:48:26;;;;;;;0.00;0.00;;;31.10;60.20;;;;;;5010381;28;20053;-72
2022/06/16 11:51:29;;;;;;;0.38;0.20;;;30.90;60.90;;;;;;5011311;28;20045;-72
2022/06/16 11:54:18;;;;;;;0.65;0.65;;;31.10;59.90;;;;;;5010189;28;20030;-72
2022/06/16 11:57:21;;;;;;;0.35;0.35;;;31.10;59.50;;;;;;5011264;28;20041;-72
2022/06/16 12:00:14;;;;;;;0.40;0.17;;;31.10;60.50;;;;;;5009502;28;20425;-72
2022/06/16 12:03:25;;;;;;;0.10;0.10;;;31.30;58.60;;;;;;5010762;28;20033;-71
2022/06/16 12:06:31;;;;;;;0.10;0.10;;;31.00;59.00;;;;;;4995578;28;20441;-70
2022/06/16 12:09:06;;;;;;;0.20;0.20;;;31.30;58.40;;;;;;5009257;28;20029;-71
2022/06/16 12:12:05;;;;;;;0.52;0.20;;;31.40;58.00;;;;;;5010907;28;20038;-71
2022/06/16 12:14:39;;;;;;;0.32;0.28;;;31.50;58.10;;;;;;5009557;28;20455;-71
2022/06/16 12:17:38;;;;;;;0.00;0.00;;;31.50;57.80;;;;;;4993310;28;20058;-71
2022/06/16 12:20:34;;;;;;;0.35;0.22;;;31.30;56.90;;;;;;4990327;28;20038;-72
2022/06/16 12:23:18;;;;;;;0.20;0.20;;;31.30;57.40;;;;;;4990123;28;20116;-72
2022/06/16 12:26:24;;;;;;;0.50;0.47;;;31.50;56.50;;;;;;4991255;28;20046;-72
2022/06/16 12:29:32;;;;;;;0.52;0.32;;;31.20;56.60;;;;;;4990751;28;20046;-70
2022/06/16 12:32:18;;;;;;;0.20;0.20;;;31.70;55.10;;;;;;4990339;28;20034;-70
2022/06/16 12:35:23;;;;;;;0.85;0.32;;;31.60;55.40;;;;;;4990727;28;20038;-70
2022/06/16 12:38:26;;;;;;;0.13;0.13;;;31.80;55.40;;;;;;5009775;28;20560;-70
2022/06/16 12:41:00;;;;;;;0.10;0.10;;;32.00;54.90;;;;;;5010024;28;20038;-70
2022/06/16 12:43:51;;;;;;;0.20;0.20;;;31.90;54.70;;;;;;5009392;28;20037;-69
2022/06/16 12:46:30;;;;;;;0.13;0.13;;;32.10;54.00;;;;;;5010446;28;20026;-70
2022/06/16 12:49:15;;;;;;;0.28;0.20;;;31.90;53.40;;;;;;5008388;28;20120;-70
2022/06/16 12:51:49;;;;;;;0.17;0.17;;;31.80;53.40;;;;;;5008997;28;20030;-71
2022/06/16 12:54:26;;;;;;;0.45;0.32;;;31.70;53.40;;;;;;5009323;28;20033;-71
2022/06/16 12:57:02;;;;;;;0.25;0.25;;;31.60;53.60;;;;;;5013324;28;20041;-71
2022/06/16 12:59:46;;;;;;;0.30;0.22;;;31.70;53.20;;;;;;5012802;28;20056;-72
2022/06/16 13:02:20;;;;;;;0.20;0.10;;;31.80;53.70;;;;;;5013021;28;20026;-72
2022/06/16 13:04:47;;;;;;;0.40;0.30;;;32.30;53.70;;;;;;5014233;28;20637;-72
2022/06/16 13:07:29;;;;;;;0.00;0.00;;;32.40;53.00;;;;;;5013106;28;20042;-72
2022/06/16 13:09:54;;;;;;;2.03;0.60;;;32.60;52.50;;;;;;5013499;28;20053;-72
2022/06/16 13:12:29;;;;;;;2.45;0.95;;;32.40;52.50;;;;;;5012703;28;20650;-72
2022/06/16 13:15:09;;;;;;;0.08;0.08;;;32.70;52.40;;;;;;5013255;28;20060;-72
2022/06/16 13:17:52;;;;;;;0.10;0.10;;;32.70;51.30;;;;;;4993494;28;20077;-71
2022/06/16 13:20:22;;;;;;;0.28;0.25;;;32.60;50.20;;;;;;4993870;28;20052;-72
2022/06/16 13:23:18;;;;;;;0.68;0.68;;;32.30;49.80;;;;;;4993421;28;20097;-72
2022/06/16 13:25:53;;;;;;;0.00;0.00;;;32.30;50.60;;;;;;4992915;28;20050;-72
2022/06/16 13:28:39;;;;;;;0.10;0.10;;;32.40;50.60;;;;;;4994622;28;20056;-72
2022/06/16 13:31:29;;;;;;;0.20;0.20;;;32.50;49.80;;;;;;4993270;28;20045;-72
2022/06/16 13:33:54;;;;;;;0.00;0.00;;;32.90;49.60;;;;;;4992726;28;20062;-72
2022/06/16 13:36:23;;;;;;;0.63;0.25;;;33.60;48.00;;;;;;4994093;28;20442;-73
2022/06/16 13:38:52;;;;;;;0.20;0.13;;;33.50;47.80;;;;;;4993384;28;20030;-71
2022/06/16 13:41:37;;;;;;;0.17;0.10;;;33.90;47.60;;;;;;4994425;28;20494;-71
2022/06/16 13:44:20;;;;;;;14.05;0.20;;;34.50;48.00;;;;;;4994494;28;20398;-71
2022/06/16 13:46:58;;;;;;;1.45;0.13;;;34.50;47.10;;;;;;4993307;28;20369;-71
2022/06/16 13:49:45;;;;;;;0.00;0.00;;;34.50;46.50;;;;;;4992980;28;20042;-70
2022/06/16 13:52:11;;;;;;;0.00;0.00;;;34.60;45.80;;;;;;5009412;28;20078;-71
2022/06/16 13:54:38;;;;;;;0.00;0.00;;;35.00;45.00;;;;;;4993547;28;20062;-71
2022/06/16 13:57:33;;;;;;;0.10;0.10;;;34.80;45.40;;;;;;4992910;28;20049;-71
2022/06/16 14:00:10;;;;;;;0.17;0.10;;;34.70;43.60;;;;;;4992879;28;20026;-71
2022/06/16 14:03:01;;;;;;;0.00;0.00;;;34.60;43.00;;;;;;4994191;28;20045;-71